sensor_id;sensor_type;location;lat;lon;timestamp;P1;durP1;ratioP1;P2;durP2;ratioP2
59418;SDS011;45224;50.904;6.038;2022-09-13T00:00:23;6.77;;;4.10;;
59418;SDS011;45224;50.904;6.038;2022-09-13T00:01:53;5.28;;;4.10;;
59418;SDS011;45224;50.904;6.038;2022-09-13T00:03:24;8.03;;;4.67;;
59418;SDS011;45224;50.904;6.038;2022-09-13T00:04:55;12.00;;;4.65;;
59418;SDS011;45224;50.904;6.038;2022-09-13T00:06:25;7.57;;;4.47;;
59418;SDS011;45224;50.904;6.038;2022-09-13T00:07:56;11.20;;;4.43;;
59418;SDS011;45224;50.904;6.038;2022-09-13T00:09:27;6.90;;;4.50;;
59418;SDS011;45224;50.904;6.038;2022-09-13T00:10:57;9.37;;;4.73;;
59418;SDS011;45224;50.904;6.038;2022-09-13T00:12:28;6.50;;;4.70;;
59418;SDS011;45224;50.904;6.038;2022-09-13T00:13:58;8.87;;;4.47;;
59418;SDS011;45224;50.904;6.038;2022-09-13T00:15:29;7.60;;;4.28;;
59418;SDS011;45224;50.904;6.038;2022-09-13T00:17:00;8.40;;;4.20;;
59418;SDS011;45224;50.904;6.038;2022-09-13T00:18:30;9.23;;;4.40;;
59418;SDS011;45224;50.904;6.038;2022-09-13T00:20:01;9.75;;;4.30;;
59418;SDS011;45224;50.904;6.038;2022-09-13T00:21:31;7.13;;;3.80;;
59418;SDS011;45224;50.904;6.038;2022-09-13T00:23:02;8.87;;;3.97;;
59418;SDS011;45224;50.904;6.038;2022-09-13T00:24:32;8.55;;;4.30;;
59418;SDS011;45224;50.904;6.038;2022-09-13T00:26:03;6.20;;;3.93;;
59418;SDS011;45224;50.904;6.038;2022-09-13T00:27:38;10.13;;;4.10;;
59418;SDS011;45224;50.904;6.038;2022-09-13T00:29:09;8.25;;;4.03;;
59418;SDS011;45224;50.904;6.038;2022-09-13T00:30:39;7.57;;;4.07;;
59418;SDS011;45224;50.904;6.038;2022-09-13T00:32:10;10.10;;;4.00;;
59418;SDS011;45224;50.904;6.038;2022-09-13T00:33:40;9.35;;;3.97;;
59418;SDS011;45224;50.904;6.038;2022-09-13T00:35:11;9.17;;;3.80;;
59418;SDS011;45224;50.904;6.038;2022-09-13T00:36:42;9.23;;;3.65;;
59418;SDS011;45224;50.904;6.038;2022-09-13T00:38:12;5.82;;;3.60;;
59418;SDS011;45224;50.904;6.038;2022-09-13T00:39:43;7.83;;;3.63;;
59418;SDS011;45224;50.904;6.038;2022-09-13T00:41:14;6.93;;;3.57;;
59418;SDS011;45224;50.904;6.038;2022-09-13T00:42:46;5.07;;;3.45;;
59418;SDS011;45224;50.904;6.038;2022-09-13T00:46:21;15.60;;;3.75;;
59418;SDS011;45224;50.904;6.038;2022-09-13T00:48:04;8.45;;;3.33;;
59418;SDS011;45224;50.904;6.038;2022-09-13T00:49:37;7.72;;;3.22;;
59418;SDS011;45224;50.904;6.038;2022-09-13T00:51:12;8.05;;;3.22;;
59418;SDS011;45224;50.904;6.038;2022-09-13T00:52:43;9.80;;;3.40;;
59418;SDS011;45224;50.904;6.038;2022-09-13T00:54:19;4.80;;;3.08;;
59418;SDS011;45224;50.904;6.038;2022-09-13T00:55:57;4.47;;;3.10;;
59418;SDS011;45224;50.904;6.038;2022-09-13T00:57:31;8.48;;;3.50;;
59418;SDS011;45224;50.904;6.038;2022-09-13T00:59:06;6.93;;;3.38;;
59418;SDS011;45224;50.904;6.038;2022-09-13T01:00:47;11.80;;;3.47;;
59418;SDS011;45224;50.904;6.038;2022-09-13T01:02:19;5.95;;;2.95;;
59418;SDS011;45224;50.904;6.038;2022-09-13T01:03:50;6.32;;;3.10;;
59418;SDS011;45224;50.904;6.038;2022-09-13T01:05:21;5.10;;;2.97;;
59418;SDS011;45224;50.904;6.038;2022-09-13T01:06:58;6.07;;;3.08;;
59418;SDS011;45224;50.904;6.038;2022-09-13T01:08:37;5.13;;;3.55;;
59418;SDS011;45224;50.904;6.038;2022-09-13T01:10:11;4.85;;;2.85;;
59418;SDS011;45224;50.904;6.038;2022-09-13T01:11:45;7.85;;;3.20;;
59418;SDS011;45224;50.904;6.038;2022-09-13T01:13:20;5.68;;;3.00;;
59418;SDS011;45224;50.904;6.038;2022-09-13T01:14:52;5.70;;;3.10;;
59418;SDS011;45224;50.904;6.038;2022-09-13T01:16:27;3.50;;;2.90;;
59418;SDS011;45224;50.904;6.038;2022-09-13T01:17:58;5.05;;;2.95;;
59418;SDS011;45224;50.904;6.038;2022-09-13T01:19:29;3.65;;;2.80;;
59418;SDS011;45224;50.904;6.038;2022-09-13T01:34:39;3.40;;;2.30;;
59418;SDS011;45224;50.904;6.038;2022-09-13T01:54:17;3.45;;;1.95;;
59418;SDS011;45224;50.904;6.038;2022-09-13T01:56:08;4.13;;;2.40;;
59418;SDS011;45224;50.904;6.038;2022-09-13T02:00:07;11.75;;;2.30;;
59418;SDS011;45224;50.904;6.038;2022-09-13T02:01:46;3.55;;;2.10;;
59418;SDS011;45224;50.904;6.038;2022-09-13T02:03:33;3.95;;;2.45;;
59418;SDS011;45224;50.904;6.038;2022-09-13T02:05:17;4.00;;;2.03;;
59418;SDS011;45224;50.904;6.038;2022-09-13T02:07:08;3.97;;;2.50;;
59418;SDS011;45224;50.904;6.038;2022-09-13T02:08:47;2.90;;;2.50;;
59418;SDS011;45224;50.904;6.038;2022-09-13T02:10:30;3.75;;;2.35;;
59418;SDS011;45224;50.904;6.038;2022-09-13T02:12:13;5.40;;;2.30;;
59418;SDS011;45224;50.904;6.038;2022-09-13T02:15:45;6.28;;;2.53;;
59418;SDS011;45224;50.904;6.038;2022-09-13T02:17:20;3.90;;;2.50;;
59418;SDS011;45224;50.904;6.038;2022-09-13T02:18:54;6.47;;;2.40;;
59418;SDS011;45224;50.904;6.038;2022-09-13T02:20:35;5.30;;;2.45;;
59418;SDS011;45224;50.904;6.038;2022-09-13T02:22:11;5.32;;;2.15;;
59418;SDS011;45224;50.904;6.038;2022-09-13T02:23:48;4.75;;;2.25;;
59418;SDS011;45224;50.904;6.038;2022-09-13T02:25:23;3.13;;;2.05;;
59418;SDS011;45224;50.904;6.038;2022-09-13T02:26:57;3.20;;;2.05;;
59418;SDS011;45224;50.904;6.038;2022-09-13T02:28:34;3.35;;;2.08;;
59418;SDS011;45224;50.904;6.038;2022-09-13T02:30:09;3.17;;;2.10;;
59418;SDS011;45224;50.904;6.038;2022-09-13T02:31:46;5.55;;;2.10;;
59418;SDS011;45224;50.904;6.038;2022-09-13T02:33:25;4.75;;;2.08;;
59418;SDS011;45224;50.904;6.038;2022-09-13T02:35:00;5.00;;;2.10;;
59418;SDS011;45224;50.904;6.038;2022-09-13T02:36:37;2.95;;;2.10;;
59418;SDS011;45224;50.904;6.038;2022-09-13T02:38:13;4.50;;;2.28;;
59418;SDS011;45224;50.904;6.038;2022-09-13T02:39:58;4.38;;;2.25;;
59418;SDS011;45224;50.904;6.038;2022-09-13T02:41:38;2.28;;;1.85;;
59418;SDS011;45224;50.904;6.038;2022-09-13T02:43:52;1.98;;;1.80;;
59418;SDS011;45224;50.904;6.038;2022-09-13T02:45:25;5.93;;;2.10;;
59418;SDS011;45224;50.904;6.038;2022-09-13T02:56:37;2.10;;;1.83;;
59418;SDS011;45224;50.904;6.038;2022-09-13T02:59:44;2.88;;;1.80;;
59418;SDS011;45224;50.904;6.038;2022-09-13T03:01:17;3.75;;;1.80;;
59418;SDS011;45224;50.904;6.038;2022-09-13T03:02:48;4.55;;;1.95;;
59418;SDS011;45224;50.904;6.038;2022-09-13T03:04:21;2.72;;;1.63;;
59418;SDS011;45224;50.904;6.038;2022-09-13T03:05:52;2.92;;;1.92;;
59418;SDS011;45224;50.904;6.038;2022-09-13T03:07:22;3.63;;;1.90;;
59418;SDS011;45224;50.904;6.038;2022-09-13T03:08:57;4.13;;;1.80;;
59418;SDS011;45224;50.904;6.038;2022-09-13T03:10:35;2.05;;;1.60;;
59418;SDS011;45224;50.904;6.038;2022-09-13T03:12:38;3.72;;;1.70;;
59418;SDS011;45224;50.904;6.038;2022-09-13T03:14:39;4.35;;;1.80;;
59418;SDS011;45224;50.904;6.038;2022-09-13T03:24:19;3.63;;;2.00;;
59418;SDS011;45224;50.904;6.038;2022-09-13T03:26:01;2.67;;;1.70;;
59418;SDS011;45224;50.904;6.038;2022-09-13T03:29:25;1.75;;;1.60;;
59418;SDS011;45224;50.904;6.038;2022-09-13T03:33:05;2.53;;;1.73;;
59418;SDS011;45224;50.904;6.038;2022-09-13T03:34:54;2.33;;;1.83;;
59418;SDS011;45224;50.904;6.038;2022-09-13T03:36:41;2.28;;;1.77;;
59418;SDS011;45224;50.904;6.038;2022-09-13T03:38:28;2.08;;;1.67;;
59418;SDS011;45224;50.904;6.038;2022-09-13T03:40:06;2.63;;;2.00;;
59418;SDS011;45224;50.904;6.038;2022-09-13T03:41:41;5.38;;;1.67;;
59418;SDS011;45224;50.904;6.038;2022-09-13T03:44:50;2.35;;;2.00;;
59418;SDS011;45224;50.904;6.038;2022-09-13T03:46:26;2.25;;;1.90;;
59418;SDS011;45224;50.904;6.038;2022-09-13T03:48:04;2.92;;;2.03;;
59418;SDS011;45224;50.904;6.038;2022-09-13T03:49:36;3.53;;;1.80;;
59418;SDS011;45224;50.904;6.038;2022-09-13T03:51:08;2.30;;;1.90;;
59418;SDS011;45224;50.904;6.038;2022-09-13T03:52:40;5.75;;;2.00;;
59418;SDS011;45224;50.904;6.038;2022-09-13T03:54:17;4.78;;;1.75;;
59418;SDS011;45224;50.904;6.038;2022-09-13T03:55:50;2.70;;;1.90;;
59418;SDS011;45224;50.904;6.038;2022-09-13T03:57:21;3.88;;;1.90;;
59418;SDS011;45224;50.904;6.038;2022-09-13T03:58:52;2.95;;;1.85;;
59418;SDS011;45224;50.904;6.038;2022-09-13T04:00:22;2.17;;;1.90;;
59418;SDS011;45224;50.904;6.038;2022-09-13T04:01:53;4.07;;;1.88;;
59418;SDS011;45224;50.904;6.038;2022-09-13T04:03:23;2.43;;;1.90;;
59418;SDS011;45224;50.904;6.038;2022-09-13T04:04:54;3.67;;;2.10;;
59418;SDS011;45224;50.904;6.038;2022-09-13T04:06:25;2.92;;;1.98;;
59418;SDS011;45224;50.904;6.038;2022-09-13T04:07:55;2.20;;;1.90;;
59418;SDS011;45224;50.904;6.038;2022-09-13T04:09:26;2.47;;;2.00;;
59418;SDS011;45224;50.904;6.038;2022-09-13T04:10:56;7.63;;;2.00;;
59418;SDS011;45224;50.904;6.038;2022-09-13T04:12:27;3.80;;;2.20;;
59418;SDS011;45224;50.904;6.038;2022-09-13T04:14:00;2.53;;;1.77;;
59418;SDS011;45224;50.904;6.038;2022-09-13T04:15:32;2.10;;;1.80;;
59418;SDS011;45224;50.904;6.038;2022-09-13T04:17:02;2.87;;;2.13;;
59418;SDS011;45224;50.904;6.038;2022-09-13T04:18:33;3.33;;;2.20;;
59418;SDS011;45224;50.904;6.038;2022-09-13T04:20:04;2.80;;;2.13;;
59418;SDS011;45224;50.904;6.038;2022-09-13T04:21:34;3.03;;;1.90;;
59418;SDS011;45224;50.904;6.038;2022-09-13T04:23:05;3.20;;;1.98;;
59418;SDS011;45224;50.904;6.038;2022-09-13T04:24:35;2.00;;;1.80;;
59418;SDS011;45224;50.904;6.038;2022-09-13T04:26:08;2.58;;;1.88;;
59418;SDS011;45224;50.904;6.038;2022-09-13T04:27:38;3.33;;;1.77;;
59418;SDS011;45224;50.904;6.038;2022-09-13T04:29:09;5.67;;;1.67;;
59418;SDS011;45224;50.904;6.038;2022-09-13T04:30:42;3.72;;;1.80;;
59418;SDS011;45224;50.904;6.038;2022-09-13T04:32:13;4.88;;;1.80;;
59418;SDS011;45224;50.904;6.038;2022-09-13T04:33:44;3.40;;;1.87;;
59418;SDS011;45224;50.904;6.038;2022-09-13T04:35:14;2.65;;;1.90;;
59418;SDS011;45224;50.904;6.038;2022-09-13T04:36:49;2.83;;;1.80;;
59418;SDS011;45224;50.904;6.038;2022-09-13T04:38:21;5.70;;;1.80;;
59418;SDS011;45224;50.904;6.038;2022-09-13T04:39:51;3.10;;;1.70;;
59418;SDS011;45224;50.904;6.038;2022-09-13T04:41:22;1.60;;;1.45;;
59418;SDS011;45224;50.904;6.038;2022-09-13T04:42:53;3.80;;;1.90;;
59418;SDS011;45224;50.904;6.038;2022-09-13T04:44:23;2.90;;;1.93;;
59418;SDS011;45224;50.904;6.038;2022-09-13T04:45:54;2.05;;;1.58;;
59418;SDS011;45224;50.904;6.038;2022-09-13T04:47:30;3.15;;;1.80;;
59418;SDS011;45224;50.904;6.038;2022-09-13T04:49:00;8.13;;;1.70;;
59418;SDS011;45224;50.904;6.038;2022-09-13T04:50:30;2.03;;;1.47;;
59418;SDS011;45224;50.904;6.038;2022-09-13T04:52:01;5.55;;;1.67;;
59418;SDS011;45224;50.904;6.038;2022-09-13T04:53:32;4.00;;;1.50;;
59418;SDS011;45224;50.904;6.038;2022-09-13T04:55:03;2.40;;;1.50;;
59418;SDS011;45224;50.904;6.038;2022-09-13T04:56:33;2.97;;;1.67;;
59418;SDS011;45224;50.904;6.038;2022-09-13T04:58:04;4.93;;;1.50;;
59418;SDS011;45224;50.904;6.038;2022-09-13T04:59:35;2.60;;;1.50;;
59418;SDS011;45224;50.904;6.038;2022-09-13T05:01:07;2.47;;;1.40;;
59418;SDS011;45224;50.904;6.038;2022-09-13T05:02:39;1.90;;;1.40;;
59418;SDS011;45224;50.904;6.038;2022-09-13T05:04:09;2.47;;;1.30;;
59418;SDS011;45224;50.904;6.038;2022-09-13T05:05:39;2.43;;;1.20;;
59418;SDS011;45224;50.904;6.038;2022-09-13T05:07:10;3.57;;;1.40;;
59418;SDS011;45224;50.904;6.038;2022-09-13T05:08:40;1.75;;;1.40;;
59418;SDS011;45224;50.904;6.038;2022-09-13T05:10:11;2.80;;;1.40;;
59418;SDS011;45224;50.904;6.038;2022-09-13T05:11:41;1.70;;;1.37;;
59418;SDS011;45224;50.904;6.038;2022-09-13T05:13:12;2.67;;;1.45;;
59418;SDS011;45224;50.904;6.038;2022-09-13T05:14:43;4.70;;;1.53;;
59418;SDS011;45224;50.904;6.038;2022-09-13T05:16:13;1.40;;;1.30;;
59418;SDS011;45224;50.904;6.038;2022-09-13T05:17:43;3.80;;;1.47;;
59418;SDS011;45224;50.904;6.038;2022-09-13T05:19:14;2.70;;;1.40;;
59418;SDS011;45224;50.904;6.038;2022-09-13T05:20:44;1.57;;;1.20;;
59418;SDS011;45224;50.904;6.038;2022-09-13T05:22:15;2.13;;;1.50;;
59418;SDS011;45224;50.904;6.038;2022-09-13T05:23:49;3.63;;;1.90;;
59418;SDS011;45224;50.904;6.038;2022-09-13T05:25:23;1.80;;;1.35;;
59418;SDS011;45224;50.904;6.038;2022-09-13T05:28:26;3.53;;;1.30;;
59418;SDS011;45224;50.904;6.038;2022-09-13T05:30:00;2.83;;;1.23;;
59418;SDS011;45224;50.904;6.038;2022-09-13T05:31:32;2.00;;;1.50;;
59418;SDS011;45224;50.904;6.038;2022-09-13T05:33:04;2.47;;;1.50;;
59418;SDS011;45224;50.904;6.038;2022-09-13T05:34:35;2.10;;;1.30;;
59418;SDS011;45224;50.904;6.038;2022-09-13T05:36:05;1.33;;;1.20;;
59418;SDS011;45224;50.904;6.038;2022-09-13T05:37:36;4.30;;;1.25;;
59418;SDS011;45224;50.904;6.038;2022-09-13T05:39:09;3.63;;;1.50;;
59418;SDS011;45224;50.904;6.038;2022-09-13T05:40:42;2.20;;;1.42;;
59418;SDS011;45224;50.904;6.038;2022-09-13T05:42:13;3.10;;;1.48;;
59418;SDS011;45224;50.904;6.038;2022-09-13T05:43:43;1.47;;;1.20;;
59418;SDS011;45224;50.904;6.038;2022-09-13T05:45:13;2.47;;;1.47;;
59418;SDS011;45224;50.904;6.038;2022-09-13T05:46:47;2.15;;;1.27;;
59418;SDS011;45224;50.904;6.038;2022-09-13T05:48:18;1.67;;;1.30;;
59418;SDS011;45224;50.904;6.038;2022-09-13T05:49:49;2.83;;;1.15;;
59418;SDS011;45224;50.904;6.038;2022-09-13T05:51:20;2.57;;;1.50;;
59418;SDS011;45224;50.904;6.038;2022-09-13T05:52:51;1.27;;;1.10;;
59418;SDS011;45224;50.904;6.038;2022-09-13T05:54:23;3.13;;;1.30;;
59418;SDS011;45224;50.904;6.038;2022-09-13T05:55:53;1.57;;;1.40;;
59418;SDS011;45224;50.904;6.038;2022-09-13T05:57:24;4.40;;;1.20;;
59418;SDS011;45224;50.904;6.038;2022-09-13T05:58:54;4.37;;;1.47;;
59418;SDS011;45224;50.904;6.038;2022-09-13T06:00:25;3.13;;;1.50;;
59418;SDS011;45224;50.904;6.038;2022-09-13T06:01:55;3.30;;;1.30;;
59418;SDS011;45224;50.904;6.038;2022-09-13T06:03:26;2.67;;;1.40;;
59418;SDS011;45224;50.904;6.038;2022-09-13T06:04:56;2.00;;;1.27;;
59418;SDS011;45224;50.904;6.038;2022-09-13T06:06:26;2.87;;;1.40;;
59418;SDS011;45224;50.904;6.038;2022-09-13T06:07:57;1.90;;;1.30;;
59418;SDS011;45224;50.904;6.038;2022-09-13T06:09:27;1.97;;;1.37;;
59418;SDS011;45224;50.904;6.038;2022-09-13T06:11:00;2.67;;;1.42;;
59418;SDS011;45224;50.904;6.038;2022-09-13T06:12:31;4.43;;;1.42;;
59418;SDS011;45224;50.904;6.038;2022-09-13T06:14:01;4.53;;;1.37;;
59418;SDS011;45224;50.904;6.038;2022-09-13T06:15:31;5.50;;;1.40;;
59418;SDS011;45224;50.904;6.038;2022-09-13T06:17:02;5.50;;;1.50;;
59418;SDS011;45224;50.904;6.038;2022-09-13T06:18:32;1.87;;;1.20;;
59418;SDS011;45224;50.904;6.038;2022-09-13T06:20:04;2.28;;;1.02;;
59418;SDS011;45224;50.904;6.038;2022-09-13T06:21:35;3.22;;;1.38;;
59418;SDS011;45224;50.904;6.038;2022-09-13T06:23:06;2.97;;;1.13;;
59418;SDS011;45224;50.904;6.038;2022-09-13T06:24:36;2.17;;;1.42;;
59418;SDS011;45224;50.904;6.038;2022-09-13T06:26:11;1.42;;;1.20;;
59418;SDS011;45224;50.904;6.038;2022-09-13T06:27:43;1.60;;;1.25;;
59418;SDS011;45224;50.904;6.038;2022-09-13T06:29:14;1.57;;;1.30;;
59418;SDS011;45224;50.904;6.038;2022-09-13T06:30:44;1.97;;;1.30;;
59418;SDS011;45224;50.904;6.038;2022-09-13T06:32:16;1.63;;;1.30;;
59418;SDS011;45224;50.904;6.038;2022-09-13T06:33:46;3.17;;;1.43;;
59418;SDS011;45224;50.904;6.038;2022-09-13T06:35:17;2.17;;;1.38;;
59418;SDS011;45224;50.904;6.038;2022-09-13T06:36:48;2.53;;;1.30;;
59418;SDS011;45224;50.904;6.038;2022-09-13T06:38:18;1.67;;;1.30;;
59418;SDS011;45224;50.904;6.038;2022-09-13T06:39:49;2.08;;;1.45;;
59418;SDS011;45224;50.904;6.038;2022-09-13T06:41:20;2.42;;;1.40;;
59418;SDS011;45224;50.904;6.038;2022-09-13T06:42:52;2.85;;;1.40;;
59418;SDS011;45224;50.904;6.038;2022-09-13T06:44:23;5.20;;;1.30;;
59418;SDS011;45224;50.904;6.038;2022-09-13T06:45:57;4.53;;;1.37;;
59418;SDS011;45224;50.904;6.038;2022-09-13T06:47:28;3.08;;;1.52;;
59418;SDS011;45224;50.904;6.038;2022-09-13T06:49:02;3.40;;;1.37;;
59418;SDS011;45224;50.904;6.038;2022-09-13T06:50:34;4.00;;;1.17;;
59418;SDS011;45224;50.904;6.038;2022-09-13T06:52:04;1.73;;;1.52;;
59418;SDS011;45224;50.904;6.038;2022-09-13T06:53:35;3.90;;;1.40;;
59418;SDS011;45224;50.904;6.038;2022-09-13T06:55:07;2.30;;;1.42;;
59418;SDS011;45224;50.904;6.038;2022-09-13T06:56:38;2.97;;;1.30;;
59418;SDS011;45224;50.904;6.038;2022-09-13T06:58:08;4.30;;;1.85;;
59418;SDS011;45224;50.904;6.038;2022-09-13T06:59:38;4.43;;;1.57;;
59418;SDS011;45224;50.904;6.038;2022-09-13T07:01:16;2.90;;;1.48;;
59418;SDS011;45224;50.904;6.038;2022-09-13T07:02:49;1.70;;;1.20;;
59418;SDS011;45224;50.904;6.038;2022-09-13T07:04:21;2.03;;;1.42;;
59418;SDS011;45224;50.904;6.038;2022-09-13T07:05:52;2.80;;;1.35;;
59418;SDS011;45224;50.904;6.038;2022-09-13T07:07:23;2.80;;;1.17;;
59418;SDS011;45224;50.904;6.038;2022-09-13T07:08:54;3.67;;;1.50;;
59418;SDS011;45224;50.904;6.038;2022-09-13T07:10:25;2.38;;;1.70;;
59418;SDS011;45224;50.904;6.038;2022-09-13T07:11:56;1.83;;;1.40;;
59418;SDS011;45224;50.904;6.038;2022-09-13T07:13:26;2.08;;;1.48;;
59418;SDS011;45224;50.904;6.038;2022-09-13T07:14:57;2.20;;;1.27;;
59418;SDS011;45224;50.904;6.038;2022-09-13T07:16:30;2.53;;;1.30;;
59418;SDS011;45224;50.904;6.038;2022-09-13T07:18:02;2.17;;;1.33;;
59418;SDS011;45224;50.904;6.038;2022-09-13T07:19:33;2.97;;;1.20;;
59418;SDS011;45224;50.904;6.038;2022-09-13T07:21:04;5.33;;;1.30;;
59418;SDS011;45224;50.904;6.038;2022-09-13T07:22:37;4.18;;;1.65;;
59418;SDS011;45224;50.904;6.038;2022-09-13T07:24:07;4.60;;;1.50;;
59418;SDS011;45224;50.904;6.038;2022-09-13T07:25:38;2.70;;;1.30;;
59418;SDS011;45224;50.904;6.038;2022-09-13T07:27:09;2.03;;;1.37;;
59418;SDS011;45224;50.904;6.038;2022-09-13T07:28:40;6.80;;;1.23;;
59418;SDS011;45224;50.904;6.038;2022-09-13T07:30:12;2.22;;;1.40;;
59418;SDS011;45224;50.904;6.038;2022-09-13T07:31:44;3.67;;;1.80;;
59418;SDS011;45224;50.904;6.038;2022-09-13T07:33:16;2.28;;;1.30;;
59418;SDS011;45224;50.904;6.038;2022-09-13T07:34:47;5.00;;;1.40;;
59418;SDS011;45224;50.904;6.038;2022-09-13T07:37:48;2.87;;;1.40;;
59418;SDS011;45224;50.904;6.038;2022-09-13T07:39:19;1.60;;;1.50;;
59418;SDS011;45224;50.904;6.038;2022-09-13T07:40:53;3.50;;;1.58;;
59418;SDS011;45224;50.904;6.038;2022-09-13T07:42:24;2.42;;;1.80;;
59418;SDS011;45224;50.904;6.038;2022-09-13T07:43:55;3.40;;;1.33;;
59418;SDS011;45224;50.904;6.038;2022-09-13T07:45:26;2.00;;;1.33;;
59418;SDS011;45224;50.904;6.038;2022-09-13T07:46:57;4.80;;;1.48;;
59418;SDS011;45224;50.904;6.038;2022-09-13T07:48:28;2.38;;;1.30;;
59418;SDS011;45224;50.904;6.038;2022-09-13T07:50:00;1.77;;;1.33;;
59418;SDS011;45224;50.904;6.038;2022-09-13T07:51:32;2.30;;;1.50;;
59418;SDS011;45224;50.904;6.038;2022-09-13T07:53:03;4.05;;;1.42;;
59418;SDS011;45224;50.904;6.038;2022-09-13T07:54:34;8.40;;;1.63;;
59418;SDS011;45224;50.904;6.038;2022-09-13T07:56:07;3.75;;;1.55;;
59418;SDS011;45224;50.904;6.038;2022-09-13T07:57:41;4.40;;;1.20;;
59418;SDS011;45224;50.904;6.038;2022-09-13T07:59:13;2.20;;;1.33;;
59418;SDS011;45224;50.904;6.038;2022-09-13T08:00:44;3.00;;;1.30;;
59418;SDS011;45224;50.904;6.038;2022-09-13T08:02:15;5.68;;;1.30;;
59418;SDS011;45224;50.904;6.038;2022-09-13T08:03:54;3.45;;;1.30;;
59418;SDS011;45224;50.904;6.038;2022-09-13T08:05:24;4.65;;;1.67;;
59418;SDS011;45224;50.904;6.038;2022-09-13T08:06:55;2.42;;;1.50;;
59418;SDS011;45224;50.904;6.038;2022-09-13T08:08:25;3.58;;;1.52;;
59418;SDS011;45224;50.904;6.038;2022-09-13T08:09:56;2.90;;;1.40;;
59418;SDS011;45224;50.904;6.038;2022-09-13T08:11:30;4.18;;;1.42;;
59418;SDS011;45224;50.904;6.038;2022-09-13T08:13:03;2.38;;;1.48;;
59418;SDS011;45224;50.904;6.038;2022-09-13T08:14:34;2.22;;;1.35;;
59418;SDS011;45224;50.904;6.038;2022-09-13T08:16:04;3.95;;;1.30;;
59418;SDS011;45224;50.904;6.038;2022-09-13T08:17:35;4.53;;;1.40;;
59418;SDS011;45224;50.904;6.038;2022-09-13T08:19:06;3.67;;;1.25;;
59418;SDS011;45224;50.904;6.038;2022-09-13T08:20:39;4.15;;;1.30;;
59418;SDS011;45224;50.904;6.038;2022-09-13T08:22:09;4.20;;;1.40;;
59418;SDS011;45224;50.904;6.038;2022-09-13T08:23:40;3.67;;;1.27;;
59418;SDS011;45224;50.904;6.038;2022-09-13T08:25:11;4.10;;;1.30;;
59418;SDS011;45224;50.904;6.038;2022-09-13T08:26:41;1.80;;;1.20;;
59418;SDS011;45224;50.904;6.038;2022-09-13T08:28:16;3.28;;;1.40;;
59418;SDS011;45224;50.904;6.038;2022-09-13T08:29:50;3.53;;;1.50;;
59418;SDS011;45224;50.904;6.038;2022-09-13T08:32:52;4.10;;;1.50;;
59418;SDS011;45224;50.904;6.038;2022-09-13T08:34:22;3.53;;;1.33;;
59418;SDS011;45224;50.904;6.038;2022-09-13T08:37:24;1.77;;;1.30;;
59418;SDS011;45224;50.904;6.038;2022-09-13T08:40:30;2.28;;;1.30;;
59418;SDS011;45224;50.904;6.038;2022-09-13T08:44:04;1.50;;;1.10;;
59418;SDS011;45224;50.904;6.038;2022-09-13T08:45:47;2.45;;;1.30;;
59418;SDS011;45224;50.904;6.038;2022-09-13T08:47:34;3.55;;;1.38;;
59418;SDS011;45224;50.904;6.038;2022-09-13T08:51:22;3.97;;;1.30;;
59418;SDS011;45224;50.904;6.038;2022-09-13T08:54:51;2.03;;;1.20;;
59418;SDS011;45224;50.904;6.038;2022-09-13T08:56:27;2.50;;;1.25;;
59418;SDS011;45224;50.904;6.038;2022-09-13T08:58:28;8.20;;;1.50;;
59418;SDS011;45224;50.904;6.038;2022-09-13T09:00:21;3.55;;;1.20;;
59418;SDS011;45224;50.904;6.038;2022-09-13T09:02:32;3.85;;;1.65;;
59418;SDS011;45224;50.904;6.038;2022-09-13T09:05:55;3.80;;;1.38;;
59418;SDS011;45224;50.904;6.038;2022-09-13T09:07:26;2.60;;;1.30;;
59418;SDS011;45224;50.904;6.038;2022-09-13T09:09:02;2.45;;;1.35;;
59418;SDS011;45224;50.904;6.038;2022-09-13T09:10:54;3.00;;;1.20;;
59418;SDS011;45224;50.904;6.038;2022-09-13T09:12:32;2.30;;;1.52;;
59418;SDS011;45224;50.904;6.038;2022-09-13T09:14:14;5.72;;;1.63;;
59418;SDS011;45224;50.904;6.038;2022-09-13T09:15:48;2.97;;;1.15;;
59418;SDS011;45224;50.904;6.038;2022-09-13T09:17:25;2.97;;;1.35;;
59418;SDS011;45224;50.904;6.038;2022-09-13T09:21:19;4.28;;;1.40;;
59418;SDS011;45224;50.904;6.038;2022-09-13T09:22:52;3.78;;;1.50;;
59418;SDS011;45224;50.904;6.038;2022-09-13T09:24:24;4.20;;;1.58;;
59418;SDS011;45224;50.904;6.038;2022-09-13T09:26:13;7.43;;;1.70;;
59418;SDS011;45224;50.904;6.038;2022-09-13T09:27:46;2.58;;;1.52;;
59418;SDS011;45224;50.904;6.038;2022-09-13T09:29:21;3.45;;;1.60;;
59418;SDS011;45224;50.904;6.038;2022-09-13T09:36:35;4.22;;;1.40;;
59418;SDS011;45224;50.904;6.038;2022-09-13T09:38:17;3.28;;;1.42;;
59418;SDS011;45224;50.904;6.038;2022-09-13T09:39:57;2.28;;;1.23;;
59418;SDS011;45224;50.904;6.038;2022-09-13T09:41:33;5.75;;;1.70;;
59418;SDS011;45224;50.904;6.038;2022-09-13T09:44:11;2.38;;;1.65;;
59418;SDS011;45224;50.904;6.038;2022-09-13T09:45:18;4.22;;;1.90;;
59418;SDS011;45224;50.904;6.038;2022-09-13T09:49:13;2.70;;;1.77;;
59418;SDS011;45224;50.904;6.038;2022-09-13T09:51:05;5.20;;;1.90;;
59418;SDS011;45224;50.904;6.038;2022-09-13T09:54:16;4.00;;;1.80;;
59418;SDS011;45224;50.904;6.038;2022-09-13T09:55:51;3.08;;;1.70;;
59418;SDS011;45224;50.904;6.038;2022-09-13T09:59:28;7.18;;;2.10;;
59418;SDS011;45224;50.904;6.038;2022-09-13T10:01:01;4.60;;;1.77;;
59418;SDS011;45224;50.904;6.038;2022-09-13T10:02:32;5.43;;;1.83;;
59418;SDS011;45224;50.904;6.038;2022-09-13T10:04:06;5.82;;;1.55;;
59418;SDS011;45224;50.904;6.038;2022-09-13T10:05:49;8.93;;;2.00;;
59418;SDS011;45224;50.904;6.038;2022-09-13T10:08:59;3.08;;;1.80;;
59418;SDS011;45224;50.904;6.038;2022-09-13T10:10:37;2.60;;;1.80;;
59418;SDS011;45224;50.904;6.038;2022-09-13T10:12:11;2.60;;;1.67;;
59418;SDS011;45224;50.904;6.038;2022-09-13T10:13:57;2.55;;;1.55;;
59418;SDS011;45224;50.904;6.038;2022-09-13T10:15:30;5.53;;;2.03;;
59418;SDS011;45224;50.904;6.038;2022-09-13T10:21:05;3.58;;;2.00;;
59418;SDS011;45224;50.904;6.038;2022-09-13T10:24:40;3.40;;;2.13;;
59418;SDS011;45224;50.904;6.038;2022-09-13T10:26:12;5.72;;;2.08;;
59418;SDS011;45224;50.904;6.038;2022-09-13T10:27:50;5.15;;;2.72;;
59418;SDS011;45224;50.904;6.038;2022-09-13T10:29:26;5.15;;;2.40;;
59418;SDS011;45224;50.904;6.038;2022-09-13T10:32:31;3.40;;;1.95;;
59418;SDS011;45224;50.904;6.038;2022-09-13T10:34:12;4.25;;;2.03;;
59418;SDS011;45224;50.904;6.038;2022-09-13T10:35:51;2.97;;;1.75;;
59418;SDS011;45224;50.904;6.038;2022-09-13T10:37:27;4.55;;;1.90;;
59418;SDS011;45224;50.904;6.038;2022-09-13T10:39:12;2.28;;;1.65;;
59418;SDS011;45224;50.904;6.038;2022-09-13T10:40:47;4.68;;;1.95;;
59418;SDS011;45224;50.904;6.038;2022-09-13T10:42:19;5.47;;;1.98;;
59418;SDS011;45224;50.904;6.038;2022-09-13T10:43:59;3.53;;;1.90;;
59418;SDS011;45224;50.904;6.038;2022-09-13T10:45:31;9.98;;;1.98;;
59418;SDS011;45224;50.904;6.038;2022-09-13T10:47:03;4.50;;;1.77;;
59418;SDS011;45224;50.904;6.038;2022-09-13T10:48:43;3.47;;;1.83;;
59418;SDS011;45224;50.904;6.038;2022-09-13T10:50:21;5.07;;;2.40;;
59418;SDS011;45224;50.904;6.038;2022-09-13T10:51:53;2.95;;;2.15;;
59418;SDS011;45224;50.904;6.038;2022-09-13T10:53:34;3.58;;;1.90;;
59418;SDS011;45224;50.904;6.038;2022-09-13T10:56:47;3.22;;;2.60;;
59418;SDS011;45224;50.904;6.038;2022-09-13T10:58:19;11.32;;;3.90;;
59418;SDS011;45224;50.904;6.038;2022-09-13T10:59:53;8.55;;;3.65;;
59418;SDS011;45224;50.904;6.038;2022-09-13T11:01:32;4.00;;;2.50;;
59418;SDS011;45224;50.904;6.038;2022-09-13T11:05:23;4.75;;;2.67;;
59418;SDS011;45224;50.904;6.038;2022-09-13T11:10:38;3.78;;;2.20;;
59418;SDS011;45224;50.904;6.038;2022-09-13T11:12:22;3.75;;;1.90;;
59418;SDS011;45224;50.904;6.038;2022-09-13T11:14:22;3.75;;;2.25;;
59418;SDS011;45224;50.904;6.038;2022-09-13T11:20:42;5.82;;;2.10;;